QFA0818 YBBN-YBCS
Flight info
| Callsign | QFA0818 |
|---|---|
| Flight time | N/A |
| Altitude | 34000 |
| Route | YBBN/19R 1607S14620E UPOLO UPOL2X/15 |
| Aircraft | B737/M-SDE2E3FGHIRWXY/LB1 |
Departure
| Time | N/A |
|---|---|
| Airport | Brisbane International Airport (YBBN) |
Arrival
| Time | 2026-04-27 10:43 |
|---|---|
| Airport | Cairns International Airport (YBCS) |
| Time | Latitude | Longitude | Altitude | Speed | Heading |
|---|---|---|---|---|---|
| 2026-04-27 10:27 | -16.36366 | 146.10555 | 6999 ft | 265 kts | 204° |
| 2026-04-27 10:27 | -16.38080 | 146.09757 | 7000 ft | 265 kts | 204° |
| 2026-04-27 10:27 | -16.39767 | 146.08971 | 7000 ft | 265 kts | 204° |
| 2026-04-27 10:28 | -16.41480 | 146.08171 | 6999 ft | 265 kts | 204° |
| 2026-04-27 10:28 | -16.43210 | 146.07365 | 6997 ft | 265 kts | 204° |
| 2026-04-27 10:28 | -16.44924 | 146.06567 | 6976 ft | 265 kts | 204° |
| 2026-04-27 10:28 | -16.46629 | 146.05772 | 6972 ft | 265 kts | 204° |
| 2026-04-27 10:29 | -16.48347 | 146.04970 | 6973 ft | 265 kts | 204° |
| 2026-04-27 10:29 | -16.50056 | 146.04173 | 6972 ft | 265 kts | 204° |
| 2026-04-27 10:29 | -16.51786 | 146.03366 | 6973 ft | 265 kts | 204° |
| 2026-04-27 10:29 | -16.53488 | 146.02571 | 6973 ft | 265 kts | 204° |
| 2026-04-27 10:30 | -16.55224 | 146.01761 | 6972 ft | 265 kts | 204° |
| 2026-04-27 10:30 | -16.56909 | 146.00974 | 6978 ft | 267 kts | 204° |
| 2026-04-27 10:30 | -16.58632 | 146.00169 | 6970 ft | 265 kts | 204° |
| 2026-04-27 10:30 | -16.60380 | 145.99353 | 6971 ft | 265 kts | 204° |
| 2026-04-27 10:31 | -16.62099 | 145.98549 | 6972 ft | 265 kts | 204° |
| 2026-04-27 10:31 | -16.63839 | 145.97736 | 6972 ft | 265 kts | 204° |
| 2026-04-27 10:31 | -16.65512 | 145.96855 | 6940 ft | 266 kts | 214° |
| 2026-04-27 10:31 | -16.66791 | 145.95453 | 6744 ft | 262 kts | 241° |
| 2026-04-27 10:32 | -16.67324 | 145.93652 | 6507 ft | 254 kts | 265° |
| 2026-04-27 10:32 | -16.67171 | 145.91832 | 6230 ft | 249 kts | 287° |
| 2026-04-27 10:32 | -16.66373 | 145.90205 | 5926 ft | 246 kts | 306° |
| 2026-04-27 10:32 | -16.65456 | 145.88676 | 5539 ft | 247 kts | 289° |
| 2026-04-27 10:33 | -16.65215 | 145.86867 | 5124 ft | 248 kts | 270° |
| 2026-04-27 10:33 | -16.65166 | 145.85060 | 5048 ft | 235 kts | 273° |
| 2026-04-27 10:33 | -16.65044 | 145.83356 | 5050 ft | 235 kts | 275° |
| 2026-04-27 10:33 | -16.65046 | 145.81601 | 5048 ft | 236 kts | 262° |
| 2026-04-27 10:34 | -16.65298 | 145.79887 | 5048 ft | 237 kts | 268° |
| 2026-04-27 10:34 | -16.64961 | 145.78191 | 5041 ft | 236 kts | 298° |
| 2026-04-27 10:34 | -16.63838 | 145.76926 | 5042 ft | 236 kts | 329° |
| 2026-04-27 10:34 | -16.62342 | 145.76193 | 5055 ft | 237 kts | 337° |
| 2026-04-27 10:35 | -16.60807 | 145.75505 | 5054 ft | 237 kts | 336° |
| 2026-04-27 10:35 | -16.59277 | 145.74812 | 5054 ft | 237 kts | 336° |
| 2026-04-27 10:35 | -16.57755 | 145.74124 | 5054 ft | 237 kts | 336° |
| 2026-04-27 10:35 | -16.56245 | 145.73439 | 5053 ft | 237 kts | 335° |
| 2026-04-27 10:36 | -16.54879 | 145.72430 | 5042 ft | 236 kts | 308° |
| 2026-04-27 10:36 | -16.54203 | 145.70874 | 5042 ft | 236 kts | 277° |
| 2026-04-27 10:36 | -16.54411 | 145.69189 | 5043 ft | 237 kts | 245° |
| 2026-04-27 10:36 | -16.55457 | 145.67850 | 5044 ft | 237 kts | 214° |
| 2026-04-27 10:37 | -16.56923 | 145.67024 | 5056 ft | 237 kts | 206° |
| 2026-04-27 10:37 | -16.58411 | 145.66255 | 5055 ft | 237 kts | 206° |
| 2026-04-27 10:37 | -16.59905 | 145.65475 | 5054 ft | 237 kts | 206° |
| 2026-04-27 10:37 | -16.61410 | 145.64691 | 4885 ft | 239 kts | 206° |
| 2026-04-27 10:38 | -16.62915 | 145.63905 | 4677 ft | 236 kts | 206° |
| 2026-04-27 10:38 | -16.64439 | 145.63261 | 4467 ft | 234 kts | 189° |
| 2026-04-27 10:38 | -16.66029 | 145.63382 | 4267 ft | 233 kts | 158° |
| 2026-04-27 10:38 | -16.67401 | 145.64300 | 4075 ft | 232 kts | 140° |
| 2026-04-27 10:39 | -16.68644 | 145.65361 | 3885 ft | 228 kts | 141° |
| 2026-04-27 10:39 | -16.69904 | 145.66359 | 3652 ft | 226 kts | 145° |
| 2026-04-27 10:39 | -16.71285 | 145.67264 | 3359 ft | 232 kts | 150° |
| 2026-04-27 10:39 | -16.72757 | 145.68054 | 3027 ft | 232 kts | 154° |
| 2026-04-27 10:40 | -16.74262 | 145.68788 | 2694 ft | 232 kts | 155° |
| 2026-04-27 10:40 | -16.75717 | 145.69452 | 2361 ft | 219 kts | 156° |
| 2026-04-27 10:40 | -16.77055 | 145.70058 | 2095 ft | 193 kts | 156° |
| 2026-04-27 10:40 | -16.78195 | 145.70572 | 1879 ft | 161 kts | 156° |
| 2026-04-27 10:41 | -16.79171 | 145.71011 | 1608 ft | 145 kts | 156° |
| 2026-04-27 10:41 | -16.80138 | 145.71448 | 1444 ft | 151 kts | 156° |
| 2026-04-27 10:41 | -16.81133 | 145.71896 | 1212 ft | 151 kts | 156° |
| 2026-04-27 10:41 | -16.82113 | 145.72339 | 1005 ft | 151 kts | 156° |
| 2026-04-27 10:42 | -16.83072 | 145.72772 | 789 ft | 145 kts | 156° |
| 2026-04-27 10:42 | -16.83996 | 145.73189 | 605 ft | 141 kts | 156° |
| 2026-04-27 10:42 | -16.84906 | 145.73599 | 422 ft | 141 kts | 156° |
| 2026-04-27 10:42 | -16.85821 | 145.74013 | 230 ft | 143 kts | 156° |
| 2026-04-27 10:43 | -16.86729 | 145.74423 | 35 ft | 133 kts | 156° |
| 2026-04-27 10:43 | -16.87464 | 145.74760 | 16 ft | 85 kts | 157° |
| 2026-04-27 10:43 | -16.87857 | 145.74936 | 16 ft | 34 kts | 156° |
| 2026-04-27 10:43 | -16.87942 | 145.74974 | 16 ft | 0 kts | 156° |
| 2026-04-27 10:44 | -16.87933 | 145.74971 | 16 ft | 2 kts | 156° |
| 2026-04-27 10:44 | -16.87929 | 145.74970 | 16 ft | 1 kts | 157° |
| 2026-04-27 10:44 | -16.88005 | 145.75003 | 16 ft | 21 kts | 156° |
| 2026-04-27 10:44 | -16.88204 | 145.75093 | 18 ft | 38 kts | 157° |
| 2026-04-27 10:45 | -16.88487 | 145.75221 | 18 ft | 43 kts | 156° |
| 2026-04-27 10:45 | -16.88666 | 145.75311 | 19 ft | 18 kts | 134° |
| 2026-04-27 10:45 | -16.88673 | 145.75423 | 19 ft | 16 kts | 61° |
| 2026-04-27 10:45 | -16.88561 | 145.75447 | 17 ft | 19 kts | 338° |
| 2026-04-27 10:46 | -16.88423 | 145.75382 | 16 ft | 23 kts | 335° |
| 2026-04-27 10:46 | -16.88269 | 145.75307 | 16 ft | 25 kts | 336° |
| 2026-04-27 10:46 | -16.88094 | 145.75226 | 16 ft | 28 kts | 336° |
| 2026-04-27 10:46 | -16.87937 | 145.75166 | 16 ft | 15 kts | 7° |
| 2026-04-27 10:47 | -16.87882 | 145.75207 | 16 ft | 0 kts | 39° |
| 2026-04-27 10:47 | -16.87876 | 145.75243 | 16 ft | 8 kts | 88° |
| 2026-04-27 10:47 | -16.87877 | 145.75290 | 16 ft | 4 kts | 64° |
| 2026-04-27 10:47 | -16.87861 | 145.75323 | 16 ft | 4 kts | 65° |
| 2026-04-27 10:48 | -16.87859 | 145.75330 | 16 ft | 0 kts | 65° |